Time;durP1;ratioP1;P1;durP2;ratioP2;P2;SDS_P1;SDS_P2;PMS_P1;PMS_P2;Temp;Humidity;BMP_temperature;BMP_pressure;BME280_temperature;BME280_humidity;BME280_pressure;Samples;Min_cycle;Max_cycle;Signal;HPM_P1;HPM_P2
2023/01/24 00:01:22;;;;;;;20.08;10.50;;;3.80;79.50;;;;;;6184147;23;20172;-78
2023/01/24 00:03:51;;;;;;;17.67;10.40;;;3.80;79.50;;;;;;6220088;23;20156;-78
2023/01/24 00:06:19;;;;;;;21.95;10.77;;;3.80;79.60;;;;;;6220997;23;20556;-78
2023/01/24 00:08:47;;;;;;;17.33;10.38;;;3.80;79.50;;;;;;6183656;23;20200;-79
2023/01/24 00:11:16;;;;;;;14.65;8.98;;;3.70;79.50;;;;;;6220797;23;20832;-79
2023/01/24 00:13:44;;;;;;;20.80;11.85;;;3.70;79.50;;;;;;6219002;23;20211;-79
2023/01/24 00:16:15;;;;;;;22.15;12.10;;;3.70;79.60;;;;;;6219784;23;20177;-78
2023/01/24 00:18:43;;;;;;;17.90;10.98;;;3.70;79.60;;;;;;6218509;23;20192;-78
2023/01/24 00:21:14;;;;;;;23.40;11.60;;;3.70;79.60;;;;;;6219816;23;20172;-77
2023/01/24 00:23:42;;;;;;;20.33;12.32;;;3.70;79.60;;;;;;6220453;23;20680;-79
2023/01/24 00:26:12;;;;;;;16.33;9.80;;;3.70;79.60;;;;;;6219854;23;20892;-78
2023/01/24 00:28:42;;;;;;;20.15;11.52;;;3.70;79.60;;;;;;6183018;23;20207;-78
2023/01/24 00:31:10;;;;;;;16.15;9.85;;;3.70;79.60;;;;;;6220574;23;20596;-79
2023/01/24 00:33:39;;;;;;;17.58;9.75;;;3.70;79.70;;;;;;6216452;23;20239;-80
2023/01/24 00:36:09;;;;;;;27.20;13.30;;;3.70;79.70;;;;;;6180151;23;20581;-80
2023/01/24 00:38:39;;;;;;;16.40;10.00;;;3.70;79.80;;;;;;6218160;23;20189;-80
2023/01/24 00:41:07;;;;;;;20.60;11.27;;;3.70;79.80;;;;;;6181581;23;20187;-80
2023/01/24 00:43:35;;;;;;;29.77;14.73;;;3.70;79.70;;;;;;6217749;23;20157;-79
2023/01/24 00:46:06;;;;;;;19.95;11.20;;;3.70;79.60;;;;;;6217111;23;20164;-80
2023/01/24 00:48:34;;;;;;;14.68;8.85;;;3.70;79.70;;;;;;6215932;23;20196;-79
2023/01/24 00:51:02;;;;;;;17.42;9.52;;;3.70;79.70;;;;;;6216528;23;20179;-79
2023/01/24 00:53:30;;;;;;;16.02;9.25;;;3.70;79.60;;;;;;6179848;23;20200;-80
2023/01/24 00:56:00;;;;;;;24.58;11.95;;;3.70;79.70;;;;;;6180795;23;20720;-80
2023/01/24 00:58:28;;;;;;;16.50;9.13;;;3.70;79.80;;;;;;6217478;23;20192;-80
2023/01/24 01:00:58;;;;;;;18.75;10.40;;;3.70;79.80;;;;;;6181243;23;20560;-80
2023/01/24 01:03:26;;;;;;;15.65;9.07;;;3.70;79.80;;;;;;6179506;23;20199;-80
2023/01/24 01:05:59;;;;;;;16.27;10.27;;;3.70;79.80;;;;;;6217916;23;20253;-80
2023/01/24 01:08:27;;;;;;;16.90;9.68;;;3.70;79.80;;;;;;6217753;23;20196;-79
2023/01/24 01:10:55;;;;;;;15.98;9.98;;;3.60;79.70;;;;;;6218542;23;20430;-80
2023/01/24 01:13:25;;;;;;;17.63;10.43;;;3.60;79.80;;;;;;6181440;23;20181;-80
2023/01/24 01:16:01;;;;;;;18.23;10.73;;;3.60;79.90;;;;;;6217266;23;20172;-80
2023/01/24 01:18:29;;;;;;;15.80;9.95;;;3.60;79.90;;;;;;6218174;23;20258;-79
2023/01/24 01:20:57;;;;;;;21.88;11.57;;;3.60;79.90;;;;;;6218325;23;20207;-79
2023/01/24 01:23:25;;;;;;;21.85;11.90;;;3.60;79.90;;;;;;6217106;23;20200;-80
2023/01/24 01:25:53;;;;;;;21.52;11.05;;;3.60;79.90;;;;;;6217239;23;20555;-79
2023/01/24 01:28:20;;;;;;;19.40;9.55;;;3.60;79.90;;;;;;6179412;23;20204;-80
2023/01/24 01:30:53;;;;;;;28.98;13.75;;;3.60;79.90;;;;;;6178763;23;20175;-80
2023/01/24 01:33:21;;;;;;;20.75;12.02;;;3.70;79.90;;;;;;6178180;23;20223;-79
2023/01/24 01:35:50;;;;;;;20.65;11.18;;;3.60;79.90;;;;;;6179252;23;20276;-80
2023/01/24 01:38:18;;;;;;;20.40;11.07;;;3.60;79.90;;;;;;6216424;23;20203;-79
2023/01/24 01:40:46;;;;;;;21.58;11.05;;;3.60;79.90;;;;;;6180573;23;20184;-80
2023/01/24 01:43:17;;;;;;;13.77;8.98;;;3.60;79.90;;;;;;6178684;23;20666;-80
2023/01/24 01:45:46;;;;;;;17.63;10.15;;;3.60;79.90;;;;;;6216140;23;20237;-80
2023/01/24 01:48:21;;;;;;;16.00;10.43;;;3.60;79.90;;;;;;6180027;23;20208;-79
2023/01/24 01:50:57;;;;;;;28.83;13.00;;;3.60;80.00;;;;;;6217712;23;20195;-80
2023/01/24 01:53:28;;;;;;;26.08;14.30;;;3.60;80.00;;;;;;6178817;23;20208;-80
2023/01/24 01:56:06;;;;;;;17.73;9.35;;;3.60;80.10;;;;;;6179751;23;20177;-80
2023/01/24 01:58:35;;;;;;;18.92;10.15;;;3.60;79.90;;;;;;6179327;23;20222;-80
2023/01/24 02:01:03;;;;;;;20.88;11.55;;;3.50;80.00;;;;;;6179589;23;20214;-79
2023/01/24 02:03:38;;;;;;;20.77;11.05;;;3.50;80.00;;;;;;6215088;23;20270;-80
2023/01/24 02:06:14;;;;;;;21.10;11.82;;;3.50;80.10;;;;;;6179511;23;20180;-80
2023/01/24 02:08:44;;;;;;;34.45;16.52;;;3.50;80.20;;;;;;6215237;23;20206;-78
2023/01/24 02:16:42;;;;;;;18.50;9.93;;;3.50;80.10;;;;;;6228783;23;20824;-80
2023/01/24 02:19:19;;;;;;;18.92;10.63;;;3.60;80.20;;;;;;6192731;23;20207;-80
2023/01/24 02:21:50;;;;;;;15.85;10.05;;;3.60;80.10;;;;;;6229648;23;20733;-81
2023/01/24 02:24:24;;;;;;;20.05;11.35;;;3.60;80.10;;;;;;6229913;23;20232;-81
2023/01/24 02:26:53;;;;;;;20.55;11.45;;;3.60;80.10;;;;;;6229352;23;20166;-80
2023/01/24 02:29:21;;;;;;;14.35;8.80;;;3.60;80.00;;;;;;6228463;23;20191;-80
2023/01/24 02:31:55;;;;;;;20.77;10.80;;;3.50;80.00;;;;;;6227411;23;20173;-81
2023/01/24 02:34:24;;;;;;;21.48;11.23;;;3.50;80.10;;;;;;6190870;23;20623;-81
2023/01/24 02:36:55;;;;;;;16.25;9.68;;;3.50;80.10;;;;;;6227246;23;20160;-80
2023/01/24 02:39:29;;;;;;;19.95;10.65;;;3.50;80.30;;;;;;6190392;23;20263;-80
2023/01/24 02:42:04;;;;;;;16.10;10.45;;;3.50;80.30;;;;;;6190233;23;20200;-80
2023/01/24 02:44:38;;;;;;;25.70;12.02;;;3.50;80.30;;;;;;6190989;23;20571;-81
2023/01/24 02:47:06;;;;;;;31.05;13.85;;;3.50;80.30;;;;;;6190085;23;20173;-80
2023/01/24 02:49:34;;;;;;;18.08;11.02;;;3.50;80.30;;;;;;6190195;23;20213;-79
2023/01/24 02:54:47;;;;;;;33.40;14.18;;;3.50;80.40;;;;;;6191710;23;20188;-79
2023/01/24 03:00:05;;;;;;;17.33;10.38;;;3.50;80.40;;;;;;6191143;23;20177;-80
2023/01/24 03:02:33;;;;;;;17.98;10.32;;;3.50;80.40;;;;;;6189323;23;20219;-81
2023/01/24 03:05:02;;;;;;;18.20;10.77;;;3.50;80.30;;;;;;6191317;23;20195;-80
2023/01/24 03:07:41;;;;;;;27.67;14.55;;;3.50;80.40;;;;;;6190017;23;20906;-79
2023/01/24 03:10:12;;;;;;;15.52;9.60;;;3.50;80.40;;;;;;6189706;23;20237;-81
2023/01/24 03:34:51;;;;;;;26.38;12.80;;;3.40;80.90;;;;;;6190483;23;20195;-79
2023/01/24 03:40:10;;;;;;;20.45;12.18;;;3.40;81.00;;;;;;6190010;23;20227;-80
2023/01/24 03:42:47;;;;;;;18.65;11.43;;;3.40;81.20;;;;;;6191328;23;20172;-81
2023/01/24 03:45:23;;;;;;;30.60;14.88;;;3.40;81.00;;;;;;6192222;23;20175;-81
2023/01/24 03:48:04;;;;;;;21.98;12.07;;;3.40;81.10;;;;;;6192157;23;20201;-79
2023/01/24 03:53:27;;;;;;;24.73;13.20;;;3.40;81.10;;;;;;6192314;23;20599;-79
2023/01/24 03:55:57;;;;;;;26.83;14.05;;;3.50;81.20;;;;;;6196071;23;20196;-80
2023/01/24 03:58:27;;;;;;;20.90;12.75;;;3.50;81.10;;;;;;6185174;23;20196;-80
2023/01/24 04:00:57;;;;;;;21.10;12.10;;;3.50;81.10;;;;;;6192616;23;20180;-80
2023/01/24 04:03:54;;;;;;;24.38;12.73;;;3.50;81.10;;;;;;6190363;23;20580;-80
2023/01/24 04:06:23;;;;;;;21.45;11.93;;;3.50;81.10;;;;;;6188435;23;20169;-79
2023/01/24 04:08:52;;;;;;;21.92;11.55;;;3.50;81.10;;;;;;6188870;23;20623;-79
2023/01/24 04:11:21;;;;;;;23.60;12.18;;;3.50;81.10;;;;;;6189786;23;20184;-79
2023/01/24 04:13:54;;;;;;;21.00;11.45;;;3.50;81.20;;;;;;6185641;23;20852;-79
2023/01/24 04:16:24;;;;;;;31.15;14.88;;;3.50;81.20;;;;;;6183534;23;20196;-79
2023/01/24 04:19:03;;;;;;;29.15;13.93;;;3.50;81.20;;;;;;6183194;23;20200;-79
2023/01/24 04:21:31;;;;;;;22.90;12.23;;;3.50;81.10;;;;;;6185039;23;20278;-78
2023/01/24 04:23:59;;;;;;;17.65;10.75;;;3.50;81.20;;;;;;6185040;23;20863;-78
2023/01/24 04:26:28;;;;;;;23.42;13.68;;;3.50;81.10;;;;;;6184578;23;20180;-78
2023/01/24 04:28:56;;;;;;;24.40;11.95;;;3.50;81.20;;;;;;6185242;23;20235;-79
2023/01/24 04:31:26;;;;;;;29.45;16.00;;;3.50;81.20;;;;;;6184014;23;20180;-79
2023/01/24 04:34:21;;;;;;;23.92;13.00;;;3.50;81.30;;;;;;6202823;23;20543;-79
2023/01/24 04:36:48;;;;;;;24.08;13.20;;;3.50;81.30;;;;;;6180802;23;20267;-79
2023/01/24 04:39:16;;;;;;;23.20;12.90;;;3.60;81.30;;;;;;6181822;23;20307;-78
2023/01/24 04:41:58;;;;;;;21.52;12.40;;;3.60;81.30;;;;;;6181823;23;20208;-81
2023/01/24 04:44:25;;;;;;;22.50;12.90;;;3.60;81.20;;;;;;6181779;23;20230;-78
2023/01/24 04:46:55;;;;;;;22.75;12.93;;;3.60;81.20;;;;;;6181103;23;20177;-78
2023/01/24 04:49:23;;;;;;;23.27;11.95;;;3.50;81.20;;;;;;6218252;23;20215;-78
2023/01/24 04:51:51;;;;;;;24.90;13.02;;;3.50;81.20;;;;;;6181184;23;20184;-78
2023/01/24 04:54:24;;;;;;;25.08;13.18;;;3.60;81.30;;;;;;6182214;23;20180;-78
2023/01/24 04:56:53;;;;;;;20.42;12.98;;;3.50;81.30;;;;;;6181787;23;20188;-78
2023/01/24 04:59:21;;;;;;;24.67;13.98;;;3.50;81.30;;;;;;6181649;23;20200;-78
2023/01/24 05:01:50;;;;;;;25.58;14.30;;;3.60;81.30;;;;;;6180513;23;20184;-78
2023/01/24 05:04:40;;;;;;;26.40;14.30;;;3.60;81.30;;;;;;6206079;23;20235;-78
2023/01/24 05:07:08;;;;;;;24.25;13.23;;;3.50;81.40;;;;;;6180481;23;20280;-78
2023/01/24 05:09:36;;;;;;;21.45;12.27;;;3.60;81.30;;;;;;6181573;23;20695;-78
2023/01/24 05:12:08;;;;;;;20.30;12.00;;;3.50;81.40;;;;;;6180095;23;20906;-78
2023/01/24 05:14:36;;;;;;;24.98;12.82;;;3.50;81.40;;;;;;6217144;23;20176;-78
2023/01/24 05:17:04;;;;;;;30.27;15.13;;;3.60;81.40;;;;;;6184921;23;20431;-78
2023/01/24 05:19:34;;;;;;;35.58;15.75;;;3.50;81.30;;;;;;6186720;23;20208;-78
2023/01/24 05:22:06;;;;;;;30.52;14.13;;;3.50;81.40;;;;;;6188384;23;20599;-79
2023/01/24 05:24:43;;;;;;;32.92;15.63;;;3.50;81.50;;;;;;6185199;23;20195;-80
2023/01/24 05:27:11;;;;;;;23.77;12.98;;;3.50;81.40;;;;;;6184260;23;20185;-79
2023/01/24 05:29:43;;;;;;;21.85;12.48;;;3.50;81.40;;;;;;6216637;23;20274;-79
2023/01/24 05:32:14;;;;;;;21.35;13.00;;;3.50;81.40;;;;;;6184873;23;20183;-79
2023/01/24 05:34:45;;;;;;;27.42;14.50;;;3.50;81.50;;;;;;6184908;23;20173;-79
2023/01/24 05:37:17;;;;;;;24.92;14.07;;;3.50;81.50;;;;;;6192001;23;20188;-79
2023/01/24 05:39:45;;;;;;;32.63;15.50;;;3.40;81.50;;;;;;6184675;23;20267;-80
2023/01/24 05:42:13;;;;;;;27.23;14.25;;;3.40;81.60;;;;;;6183292;23;20180;-79
2023/01/24 05:44:44;;;;;;;27.02;14.02;;;3.40;81.60;;;;;;6180069;23;20230;-79
2023/01/24 05:47:13;;;;;;;23.27;12.88;;;3.40;81.70;;;;;;6184542;23;20239;-81
2023/01/24 05:49:45;;;;;;;24.15;14.25;;;3.40;81.70;;;;;;6179748;23;20183;-80
2023/01/24 05:52:18;;;;;;;20.67;12.95;;;3.40;81.70;;;;;;6178873;23;20259;-80
2023/01/24 05:54:49;;;;;;;27.65;15.32;;;3.40;81.80;;;;;;6180029;23;20789;-80
2023/01/24 05:57:30;;;;;;;23.02;13.77;;;3.40;81.90;;;;;;6180653;23;20560;-79
2023/01/24 06:00:21;;;;;;;20.92;12.63;;;3.40;81.90;;;;;;6205911;23;20516;-80
2023/01/24 06:03:07;;;;;;;30.08;15.65;;;3.30;81.90;;;;;;6205652;23;20697;-79
2023/01/24 06:05:36;;;;;;;22.85;13.55;;;3.30;81.90;;;;;;6179508;23;20169;-79
2023/01/24 06:08:06;;;;;;;22.35;13.75;;;3.30;81.90;;;;;;6179055;23;20196;-80
2023/01/24 06:10:34;;;;;;;27.88;14.88;;;3.30;82.00;;;;;;6180281;23;20180;-79
2023/01/24 06:13:05;;;;;;;22.35;13.45;;;3.30;82.00;;;;;;6187803;23;20187;-81
2023/01/24 06:15:33;;;;;;;35.17;16.08;;;3.30;82.00;;;;;;6190843;23;20223;-80
2023/01/24 06:18:03;;;;;;;27.40;15.23;;;3.30;82.20;;;;;;6193057;23;20193;-80
2023/01/24 06:20:32;;;;;;;25.40;13.88;;;3.30;82.20;;;;;;6194811;23;20180;-80
2023/01/24 06:23:04;;;;;;;25.50;14.00;;;3.30;82.20;;;;;;6190371;23;20190;-80
2023/01/24 06:25:36;;;;;;;28.00;17.20;;;3.40;82.10;;;;;;6194733;23;20176;-81
2023/01/24 06:28:05;;;;;;;25.13;14.75;;;3.30;82.10;;;;;;6231914;23;20231;-82
2023/01/24 06:30:33;;;;;;;23.95;13.85;;;3.40;82.20;;;;;;6226849;23;20195;-80
2023/01/24 06:33:25;;;;;;;22.33;13.20;;;3.40;82.10;;;;;;6223221;23;20173;-80
2023/01/24 06:36:15;;;;;;;24.33;14.35;;;3.40;82.20;;;;;;6223364;23;20181;-79
2023/01/24 06:38:44;;;;;;;26.30;15.45;;;3.30;82.20;;;;;;6187318;23;20206;-80
2023/01/24 06:41:17;;;;;;;29.67;16.05;;;3.30;82.20;;;;;;6186778;23;20180;-80
2023/01/24 06:43:45;;;;;;;33.33;17.33;;;3.30;82.30;;;;;;6220293;23;20161;-79
2023/01/24 06:46:14;;;;;;;29.33;15.82;;;3.30;82.40;;;;;;6217752;23;20175;-79
2023/01/24 06:48:44;;;;;;;27.75;17.30;;;3.30;82.30;;;;;;6217762;23;20196;-79
2023/01/24 06:51:14;;;;;;;27.38;14.68;;;3.40;82.40;;;;;;6216484;23;20917;-79
2023/01/24 06:53:42;;;;;;;24.48;14.27;;;3.40;82.40;;;;;;6217560;23;20168;-79
2023/01/24 06:56:17;;;;;;;28.27;15.73;;;3.40;82.30;;;;;;6217034;23;20188;-79
2023/01/24 06:58:45;;;;;;;31.85;18.08;;;3.30;82.30;;;;;;6180013;23;20722;-79
2023/01/24 07:01:13;;;;;;;31.98;17.65;;;3.40;82.40;;;;;;6218612;23;20234;-79
2023/01/24 07:03:41;;;;;;;28.52;17.33;;;3.40;82.40;;;;;;6217456;23;20172;-80
2023/01/24 07:06:09;;;;;;;27.92;15.70;;;3.40;82.40;;;;;;6216487;23;20184;-79
2023/01/24 07:08:37;;;;;;;33.58;20.80;;;3.40;82.40;;;;;;6181936;23;20200;-81
2023/01/24 07:11:05;;;;;;;25.02;17.35;;;3.40;82.40;;;;;;6217811;23;20179;-80
2023/01/24 07:13:34;;;;;;;30.30;16.92;;;3.40;82.50;;;;;;6214273;23;20850;-79
2023/01/24 07:16:02;;;;;;;29.15;15.65;;;3.40;82.40;;;;;;6216408;23;20172;-79
2023/01/24 07:18:31;;;;;;;32.35;17.23;;;3.40;82.50;;;;;;6179547;23;20666;-79
2023/01/24 07:20:59;;;;;;;26.00;15.25;;;3.50;82.40;;;;;;6217071;23;20255;-79
2023/01/24 07:23:29;;;;;;;26.73;14.80;;;3.40;82.40;;;;;;6216325;23;20483;-79
2023/01/24 07:25:58;;;;;;;23.33;13.50;;;3.40;82.40;;;;;;6216083;23;20244;-79
2023/01/24 07:28:26;;;;;;;30.70;16.90;;;3.40;82.40;;;;;;6216175;23;20199;-80
2023/01/24 07:30:56;;;;;;;25.30;13.85;;;3.40;82.50;;;;;;6214945;23;20200;-81
2023/01/24 07:33:24;;;;;;;23.02;13.80;;;3.40;82.40;;;;;;6217034;23;20160;-80
2023/01/24 07:35:52;;;;;;;23.88;14.00;;;3.40;82.50;;;;;;6179973;23;20182;-81
2023/01/24 07:38:19;;;;;;;28.58;15.40;;;3.40;82.50;;;;;;6217635;23;20200;-81
2023/01/24 07:40:47;;;;;;;30.63;17.23;;;3.40;82.40;;;;;;6218046;23;20790;-80
2023/01/24 07:43:15;;;;;;;28.35;15.43;;;3.40;82.50;;;;;;6215769;23;20161;-81
2023/01/24 07:45:45;;;;;;;24.00;14.60;;;3.50;82.50;;;;;;6179278;23;20184;-81
2023/01/24 07:48:15;;;;;;;22.30;14.35;;;3.40;82.40;;;;;;6181935;23;20792;-81
2023/01/24 07:50:43;;;;;;;24.23;13.75;;;3.50;82.50;;;;;;6217733;23;20238;-81
2023/01/24 07:53:10;;;;;;;25.23;13.70;;;3.50;82.40;;;;;;6217242;23;20176;-81
2023/01/24 07:55:38;;;;;;;28.20;16.92;;;3.50;82.40;;;;;;6180893;23;20504;-81
2023/01/24 07:58:09;;;;;;;26.92;15.95;;;3.50;82.40;;;;;;6217909;23;20195;-79
2023/01/24 08:00:37;;;;;;;23.08;14.32;;;3.40;82.40;;;;;;6216054;23;20179;-78
2023/01/24 08:03:04;;;;;;;28.65;15.45;;;3.40;82.40;;;;;;6214905;23;20168;-79
2023/01/24 08:05:34;;;;;;;37.33;16.38;;;3.40;82.40;;;;;;6217894;23;20212;-79
2023/01/24 08:08:02;;;;;;;24.00;14.63;;;3.50;82.50;;;;;;6181718;23;20192;-79
2023/01/24 08:10:29;;;;;;;22.80;13.98;;;3.50;82.40;;;;;;6219093;23;20226;-79
2023/01/24 08:12:57;;;;;;;27.08;14.30;;;3.40;82.40;;;;;;6220142;23;20183;-79
2023/01/24 08:15:25;;;;;;;34.47;18.65;;;3.50;82.40;;;;;;6217177;23;20172;-80
2023/01/24 08:17:53;;;;;;;25.23;14.90;;;3.50;82.50;;;;;;6218153;23;20588;-80
2023/01/24 08:20:21;;;;;;;25.33;15.15;;;3.50;82.50;;;;;;6219631;23;20880;-79
2023/01/24 08:22:54;;;;;;;25.65;15.25;;;3.60;82.30;;;;;;6217448;23;20184;-79
2023/01/24 08:25:25;;;;;;;35.80;18.10;;;3.60;82.30;;;;;;6216536;23;20167;-78
2023/01/24 08:27:53;;;;;;;33.92;18.52;;;3.50;82.30;;;;;;6217295;23;20234;-78
2023/01/24 08:30:21;;;;;;;28.25;15.25;;;3.50;82.30;;;;;;6217640;23;20181;-79
2023/01/24 08:32:49;;;;;;;29.10;14.38;;;3.50;82.40;;;;;;6215577;23;20168;-78
2023/01/24 08:35:18;;;;;;;24.38;14.18;;;3.60;82.40;;;;;;6218417;23;20179;-79
2023/01/24 08:37:45;;;;;;;23.17;14.43;;;3.60;82.30;;;;;;6217532;23;20923;-79
2023/01/24 08:40:15;;;;;;;25.50;14.35;;;3.60;82.30;;;;;;6217130;23;20631;-79
2023/01/24 08:42:43;;;;;;;25.23;12.65;;;3.60;82.30;;;;;;6217477;23;20163;-79
2023/01/24 08:45:11;;;;;;;29.98;17.77;;;3.60;82.20;;;;;;6217672;23;20331;-79
2023/01/24 08:47:39;;;;;;;25.38;14.30;;;3.60;82.20;;;;;;6216779;23;20559;-80
2023/01/24 08:50:08;;;;;;;29.75;15.80;;;3.50;82.20;;;;;;6180714;23;20690;-79
2023/01/24 08:52:36;;;;;;;33.35;15.77;;;3.50;82.30;;;;;;6217640;23;20211;-79
2023/01/24 08:55:05;;;;;;;45.53;20.65;;;3.50;82.20;;;;;;6219392;23;20173;-79
2023/01/24 08:57:34;;;;;;;30.00;15.48;;;3.50;82.30;;;;;;6218556;23;20188;-78
2023/01/24 09:00:03;;;;;;;39.58;20.95;;;3.50;82.40;;;;;;6183294;23;20858;-78
2023/01/24 09:02:32;;;;;;;34.38;16.77;;;3.50;82.40;;;;;;6220074;23;20179;-78
2023/01/24 09:05:00;;;;;;;36.42;17.88;;;3.50;82.30;;;;;;6219746;23;20176;-78
2023/01/24 09:07:28;;;;;;;31.17;16.63;;;3.50;82.30;;;;;;6219445;23;20405;-78
2023/01/24 09:09:56;;;;;;;22.92;13.07;;;3.50;82.30;;;;;;6219654;23;20176;-78
2023/01/24 09:12:24;;;;;;;41.20;20.88;;;3.50;82.30;;;;;;6181838;23;20561;-79
2023/01/24 09:14:53;;;;;;;28.08;15.10;;;3.50;82.30;;;;;;6220085;23;20180;-79
2023/01/24 09:17:21;;;;;;;29.65;14.60;;;3.50;82.30;;;;;;6219685;23;20188;-79
2023/01/24 09:19:49;;;;;;;28.50;15.82;;;3.50;82.30;;;;;;6220715;23;20168;-78
2023/01/24 09:22:17;;;;;;;33.92;19.52;;;3.50;82.30;;;;;;6221551;23;20786;-78
2023/01/24 09:24:47;;;;;;;36.40;19.25;;;3.50;82.30;;;;;;6224656;23;20157;-79
2023/01/24 09:27:15;;;;;;;29.70;16.15;;;3.50;82.30;;;;;;6186157;23;20319;-76
2023/01/24 09:29:43;;;;;;;29.20;16.23;;;3.50;82.20;;;;;;6220328;23;20283;-76
2023/01/24 09:32:13;;;;;;;24.80;12.93;;;3.60;82.20;;;;;;6219525;23;20637;-77
2023/01/24 09:34:46;;;;;;;31.52;15.43;;;3.60;82.20;;;;;;6219844;23;20157;-78
2023/01/24 09:37:17;;;;;;;26.88;14.80;;;3.50;82.20;;;;;;6219516;23;20156;-77
2023/01/24 09:39:45;;;;;;;23.05;13.32;;;3.60;82.20;;;;;;6218661;23;20201;-77
2023/01/24 09:42:24;;;;;;;27.83;14.50;;;3.60;82.20;;;;;;6219033;23;20176;-76
2023/01/24 09:44:59;;;;;;;23.98;13.50;;;3.60;82.20;;;;;;6181569;23;20173;-76
2023/01/24 09:47:40;;;;;;;26.90;14.85;;;3.60;82.10;;;;;;6218768;23;20157;-77
2023/01/24 09:50:16;;;;;;;29.08;15.27;;;3.60;82.20;;;;;;6225121;23;20645;-77
2023/01/24 09:52:48;;;;;;;27.83;14.98;;;3.60;82.20;;;;;;6225282;23;20164;-76
2023/01/24 09:55:25;;;;;;;29.15;15.45;;;3.60;82.10;;;;;;6227236;23;20169;-77
2023/01/24 09:57:59;;;;;;;24.10;14.18;;;3.50;82.10;;;;;;6190426;23;20560;-78
2023/01/24 10:00:30;;;;;;;19.60;12.07;;;3.60;82.20;;;;;;6227016;23;20164;-78
2023/01/24 10:03:01;;;;;;;23.70;13.43;;;3.60;82.20;;;;;;6220048;23;20607;-76
2023/01/24 10:05:33;;;;;;;25.13;13.63;;;3.60;82.10;;;;;;6223905;23;20161;-76
2023/01/24 10:08:13;;;;;;;23.88;12.48;;;3.60;82.20;;;;;;6223741;23;20188;-77
2023/01/24 10:10:46;;;;;;;26.40;15.05;;;3.60;82.20;;;;;;6186429;23;20548;-78
2023/01/24 10:13:42;;;;;;;26.42;15.68;;;3.60;82.10;;;;;;6227475;23;20187;-77
2023/01/24 10:16:23;;;;;;;29.73;15.07;;;3.60;82.10;;;;;;6228374;23;20160;-78
2023/01/24 10:19:04;;;;;;;28.30;14.27;;;3.60;82.20;;;;;;6226341;23;20200;-77
2023/01/24 10:21:57;;;;;;;36.08;17.58;;;3.70;82.20;;;;;;6221103;23;20180;-77
2023/01/24 10:24:30;;;;;;;30.90;15.35;;;3.60;82.00;;;;;;6218119;23;20600;-77
2023/01/24 10:27:01;;;;;;;32.85;16.27;;;3.70;82.10;;;;;;6217722;23;20156;-77
2023/01/24 10:29:32;;;;;;;21.58;13.00;;;3.60;82.00;;;;;;6217983;23;20193;-77
2023/01/24 10:32:02;;;;;;;29.75;13.98;;;3.70;82.00;;;;;;6222523;23;20164;-77
2023/01/24 10:34:35;;;;;;;29.50;16.33;;;3.70;82.00;;;;;;6187613;23;20168;-77
2023/01/24 10:37:07;;;;;;;22.17;12.35;;;3.70;82.00;;;;;;6227942;23;20161;-77
2023/01/24 10:39:35;;;;;;;20.30;11.68;;;3.70;82.00;;;;;;6226228;23;20188;-78
2023/01/24 10:42:18;;;;;;;25.60;13.35;;;3.70;82.00;;;;;;6230721;23;20172;-79
2023/01/24 10:44:48;;;;;;;22.35;13.52;;;3.70;81.90;;;;;;6219200;23;20156;-78
2023/01/24 10:47:41;;;;;;;27.33;12.88;;;3.70;81.90;;;;;;6229444;23;20207;-78
2023/01/24 10:50:13;;;;;;;27.52;13.63;;;3.70;81.80;;;;;;6220910;23;20172;-77
2023/01/24 10:52:40;;;;;;;24.40;13.60;;;3.60;81.80;;;;;;6226550;23;20237;-79
2023/01/24 10:55:26;;;;;;;24.55;13.38;;;3.60;81.80;;;;;;6193595;23;20176;-79
2023/01/24 10:57:55;;;;;;;24.95;12.77;;;3.60;81.90;;;;;;6229729;23;20196;-79
2023/01/24 11:00:30;;;;;;;23.55;13.13;;;3.60;82.00;;;;;;6227996;23;20178;-78
2023/01/24 11:03:01;;;;;;;22.45;11.68;;;3.60;81.90;;;;;;6186935;23;20168;-79
2023/01/24 11:05:40;;;;;;;28.58;14.80;;;3.60;81.90;;;;;;6226965;23;20168;-78
2023/01/24 11:08:18;;;;;;;27.55;15.98;;;3.60;81.90;;;;;;6226455;23;20287;-83
2023/01/24 11:10:46;;;;;;;27.60;14.15;;;3.60;82.00;;;;;;6228886;23;20156;-83
2023/01/24 11:13:26;;;;;;;22.23;12.88;;;3.70;82.00;;;;;;6190698;23;20864;-82
2023/01/24 11:16:00;;;;;;;27.42;14.05;;;3.70;82.00;;;;;;6227936;23;20228;-82
2023/01/24 11:18:29;;;;;;;23.20;13.30;;;3.70;81.90;;;;;;6226240;23;20596;-79
2023/01/24 11:21:13;;;;;;;22.95;11.93;;;3.70;81.80;;;;;;6189702;23;20180;-82
2023/01/24 11:23:42;;;;;;;22.30;12.60;;;3.70;81.90;;;;;;6226422;23;20165;-82
2023/01/24 11:26:23;;;;;;;17.88;10.52;;;3.70;81.80;;;;;;6190882;23;20631;-83
2023/01/24 11:28:59;;;;;;;24.73;13.50;;;3.70;81.80;;;;;;6229175;23;20751;-83
2023/01/24 11:31:31;;;;;;;25.33;13.10;;;3.70;81.90;;;;;;6190274;23;20182;-80
2023/01/24 11:34:16;;;;;;;22.35;12.93;;;3.80;81.50;;;;;;6188207;23;20172;-79
2023/01/24 11:36:56;;;;;;;21.45;12.13;;;3.70;81.60;;;;;;6225057;23;20210;-82
2023/01/24 11:39:33;;;;;;;60.58;27.08;;;3.70;81.80;;;;;;6224191;23;20188;-83
2023/01/24 11:42:10;;;;;;;33.50;19.90;;;3.70;81.80;;;;;;6187090;23;20218;-83
2023/01/24 11:44:55;;;;;;;35.97;25.17;;;3.70;81.90;;;;;;6223291;23;20161;-80
2023/01/24 11:47:29;;;;;;;17.52;11.38;;;3.70;81.90;;;;;;6223023;23;20156;-81
2023/01/24 11:50:25;;;;;;;22.27;14.05;;;3.80;81.90;;;;;;6222492;23;20235;-83
2023/01/24 11:53:18;;;;;;;24.42;14.15;;;3.80;81.90;;;;;;6184868;23;20180;-82
2023/01/24 11:55:56;;;;;;;21.83;10.35;;;3.80;81.70;;;;;;6220839;23;20194;-80
2023/01/24 11:58:39;;;;;;;19.52;12.65;;;3.90;81.90;;;;;;6220422;23;20192;-82
2023/01/24 12:01:16;;;;;;;18.30;12.50;;;3.90;82.10;;;;;;6184628;23;20184;-83
2023/01/24 12:03:55;;;;;;;23.17;15.40;;;4.00;82.00;;;;;;6221363;23;20283;-80
2023/01/24 12:06:35;;;;;;;24.40;16.08;;;4.10;81.90;;;;;;6223006;23;20167;-80
2023/01/24 12:09:17;;;;;;;19.77;12.18;;;4.10;81.90;;;;;;6225240;23;20639;-80
2023/01/24 12:11:49;;;;;;;18.08;10.63;;;4.20;81.80;;;;;;6225131;23;20164;-79
2023/01/24 12:14:39;;;;;;;20.55;11.88;;;4.20;81.50;;;;;;6220748;23;20175;-79
2023/01/24 12:17:17;;;;;;;22.15;12.02;;;4.30;81.60;;;;;;6224484;23;20436;-79
2023/01/24 12:20:11;;;;;;;17.52;11.75;;;4.30;81.70;;;;;;6223599;23;20184;-79
2023/01/24 12:23:00;;;;;;;16.02;9.32;;;4.40;81.50;;;;;;6222017;23;20972;-79
2023/01/24 12:25:33;;;;;;;19.25;10.55;;;4.40;81.50;;;;;;6224555;23;20173;-79
2023/01/24 12:28:07;;;;;;;24.52;11.32;;;4.40;81.10;;;;;;6223338;23;20200;-79
2023/01/24 12:30:40;;;;;;;19.02;10.73;;;4.40;81.00;;;;;;6227874;23;20157;-80
2023/01/24 12:33:22;;;;;;;17.38;9.80;;;4.40;81.00;;;;;;6225051;23;20169;-80
2023/01/24 12:35:54;;;;;;;18.08;10.95;;;4.40;81.10;;;;;;6224909;23;20157;-79
2023/01/24 12:38:30;;;;;;;17.38;9.65;;;4.40;81.20;;;;;;6225208;23;20883;-79
2023/01/24 12:41:06;;;;;;;16.63;10.63;;;4.40;80.70;;;;;;6224327;23;20206;-79
2023/01/24 12:43:47;;;;;;;17.70;10.60;;;4.40;80.90;;;;;;6225423;23;20183;-80
2023/01/24 12:46:23;;;;;;;18.48;10.45;;;4.40;80.90;;;;;;6183354;23;20348;-79
2023/01/24 12:48:59;;;;;;;15.57;9.70;;;4.40;80.70;;;;;;6224242;23;20258;-79
2023/01/24 12:51:44;;;;;;;16.45;8.10;;;4.40;80.80;;;;;;6224191;23;20163;-79
2023/01/24 12:54:15;;;;;;;16.05;9.63;;;4.40;80.60;;;;;;6224549;23;20176;-78
2023/01/24 12:56:53;;;;;;;15.02;9.43;;;4.40;80.90;;;;;;6223443;23;20161;-79
2023/01/24 12:59:25;;;;;;;14.00;9.60;;;4.40;80.80;;;;;;6184450;23;20192;-79
2023/01/24 13:02:07;;;;;;;15.30;10.18;;;4.50;80.70;;;;;;6221221;23;20164;-79
2023/01/24 13:04:47;;;;;;;19.02;11.50;;;4.50;80.80;;;;;;6186006;23;20176;-78
2023/01/24 13:07:28;;;;;;;17.17;10.85;;;4.50;80.60;;;;;;6221646;23;20156;-80
2023/01/24 13:10:06;;;;;;;43.08;22.83;;;4.50;80.20;;;;;;6220725;23;20165;-78
2023/01/24 13:12:35;;;;;;;20.55;12.07;;;4.40;80.20;;;;;;6219752;23;20165;-78
2023/01/24 13:15:07;;;;;;;22.15;11.90;;;4.40;80.20;;;;;;6221244;23;20179;-78
2023/01/24 13:18:01;;;;;;;15.80;10.68;;;4.40;80.20;;;;;;6221152;23;20648;-78
2023/01/24 13:20:52;;;;;;;15.43;9.50;;;4.40;80.00;;;;;;6221917;23;20188;-78
2023/01/24 13:23:35;;;;;;;21.60;12.93;;;4.40;80.10;;;;;;6221140;23;20200;-80
2023/01/24 13:26:31;;;;;;;19.45;11.73;;;4.30;80.20;;;;;;6220421;23;20163;-79
2023/01/24 13:29:17;;;;;;;16.75;9.40;;;4.30;80.30;;;;;;6211821;23;20204;-77
2023/01/24 13:31:53;;;;;;;16.20;10.15;;;4.40;80.00;;;;;;6184319;23;20192;-79
2023/01/24 13:34:27;;;;;;;18.73;11.60;;;4.30;79.80;;;;;;6218879;23;20222;-80
2023/01/24 13:36:55;;;;;;;15.45;10.18;;;4.30;80.00;;;;;;6217613;23;20180;-77
2023/01/24 13:39:35;;;;;;;22.02;11.60;;;4.30;80.00;;;;;;6217336;23;20192;-77
2023/01/24 13:42:06;;;;;;;15.13;9.55;;;4.30;79.80;;;;;;6183262;23;20259;-78
2023/01/24 13:44:35;;;;;;;13.60;8.50;;;4.20;79.80;;;;;;6220598;23;20251;-78